Time;durP1;ratioP1;P1;durP2;ratioP2;P2;SDS_P1;SDS_P2;PMS_P1;PMS_P2;Temp;Humidity;BMP_temperature;BMP_pressure;BME280_temperature;BME280_humidity;BME280_pressure;Samples;Min_cycle;Max_cycle;Signal;HPM_P1;HPM_P2
2021/08/02 00:00:24;;;;;;;;;;;;;;;;;;2136940;67;1660;-69
2021/08/02 00:02:49;;;;;;;;;;;;;;;;;;2139112;59;1381;-70
2021/08/02 00:05:15;;;;;;;;;;;;;;;;;;2137448;59;3308;-68
2021/08/02 00:07:40;;;;;;;;;;;;;;;;;;2137565;67;1917;-69
2021/08/02 00:10:08;;;;;;;;;;;;;;;;;;2139541;67;1941;-69
2021/08/02 00:12:35;;;;;;;;;;;;;;;;;;2139778;67;1742;-68
2021/08/02 00:15:01;;;;;;;;;;;;;;;;;;2138012;67;1614;-69
2021/08/02 00:17:26;;;;;;;;;;;;;;;;;;2139808;67;1458;-69
2021/08/02 00:19:52;;;;;;;;;;;;;;;;;;2138089;67;1576;-69
2021/08/02 00:22:18;;;;;;;;;;;;;;;;;;2139696;67;1578;-69
2021/08/02 00:24:43;;;;;;;;;;;;;;;;;;2139554;59;1626;-68
2021/08/02 00:27:08;;;;;;;;;;;;;;;;;;2139100;67;1517;-69
2021/08/02 00:29:34;;;;;;;;;;;;;;;;;;2139266;67;1937;-70
2021/08/02 00:32:01;;;;;;;;;;;;;;;;;;2139025;67;1611;-68
2021/08/02 00:34:26;;;;;;;;;;;;;;;;;;2139112;67;1556;-70
2021/08/02 00:37:04;;;;;;;;;;;;;;;;;;2139484;67;1594;-69
2021/08/02 00:39:41;;;;;;;;;;;;;;;;;;2139373;67;1298;-69
2021/08/02 00:42:29;;;;;;;;;;;;;;;;;;2139123;67;1574;-68
2021/08/02 00:44:54;;;;;;;;;;;;;;;;;;2139703;67;1652;-68
2021/08/02 00:47:27;;;;;;;;;;;;;;;;;;2140229;53;3720;-69
2021/08/02 00:49:56;;;;;;;;;;;;;;;;;;2137419;59;2085;-70
2021/08/02 00:52:25;;;;;;;;;;;;;;;;;;2139374;59;1501;-69
2021/08/02 00:54:50;;;;;;;;;;;;;;;;;;2140200;59;1564;-69
2021/08/02 00:57:17;;;;;;;;;;;;;;;;;;2139672;67;1383;-68
2021/08/02 00:59:43;;;;;;;;;;;;;;;;;;2140492;67;1478;-69
2021/08/02 01:02:09;;;;;;;;;;;;;;;;;;2139366;59;1579;-69
2021/08/02 01:04:36;;;;;;;;;;;;;;;;;;2139740;59;1261;-70
2021/08/02 01:07:01;;;;;;;;;;;;;;;;;;2139595;67;1522;-69
2021/08/02 01:09:28;;;;;;;;;;;;;;;;;;2140304;67;1961;-69
2021/08/02 01:11:54;;;;;;;;;;;;;;;;;;2140103;67;1478;-69
2021/08/02 01:14:19;;;;;;;;;;;;;;;;;;2138276;67;1565;-69
2021/08/02 01:16:46;;;;;;;;;;;;;;;;;;2140202;67;1571;-69
2021/08/02 01:19:11;;;;;;;;;;;;;;;;;;2139051;67;1321;-69
2021/08/02 01:21:38;;;;;;;;;;;;;;;;;;2140074;59;1539;-69
2021/08/02 01:24:05;;;;;;;;;;;;;;;;;;2139575;59;1739;-69
2021/08/02 01:26:42;;;;;;;;;;;;;;;;;;2140541;67;1398;-69
2021/08/02 01:29:26;;;;;;;;;;;;;;;;;;2139917;67;1941;-69
2021/08/02 01:31:51;;;;;;;;;;;;;;;;;;2140345;67;1391;-68
2021/08/02 01:34:16;;;;;;;;;;;;;;;;;;2140171;67;1370;-69
2021/08/02 01:36:41;;;;;;;;;;;;;;;;;;2141157;67;1430;-69
2021/08/02 01:39:06;;;;;;;;;;;;;;;;;;2139964;67;1659;-69
2021/08/02 01:41:31;;;;;;;;;;;;;;;;;;2141159;67;1287;-69
2021/08/02 01:43:57;;;;;;;;;;;;;;;;;;2140310;67;1919;-69
2021/08/02 01:46:33;;;;;;;;;;;;;;;;;;2140851;59;1444;-69
2021/08/02 01:49:14;;;;;;;;;;;;;;;;;;2138815;59;1929;-69
2021/08/02 01:51:41;;;;;;;;;;;;;;;;;;2139635;67;1625;-69
2021/08/02 01:54:18;;;;;;;;;;;;;;;;;;2139703;67;1447;-69
2021/08/02 01:56:43;;;;;;;;;;;;;;;;;;2140525;67;1479;-69
2021/08/02 01:59:11;;;;;;;;;;;;;;;;;;2139659;67;1529;-69
2021/08/02 02:01:40;;;;;;;;;;;;;;;;;;2141197;59;1573;-70
2021/08/02 02:04:06;;;;;;;;;;;;;;;;;;2140137;67;1754;-69
2021/08/02 02:06:33;;;;;;;;;;;;;;;;;;2140462;67;1462;-69
2021/08/02 02:09:01;;;;;;;;;;;;;;;;;;2138837;67;1998;-69
2021/08/02 02:11:27;;;;;;;;;;;;;;;;;;2141132;67;1839;-68
2021/08/02 02:13:53;;;;;;;;;;;;;;;;;;2139140;67;2094;-69
2021/08/02 02:16:19;;;;;;;;;;;;;;;;;;2138242;59;2128;-69
2021/08/02 02:18:49;;;;;;;;;;;;;;;;;;2139051;67;1748;-69
2021/08/02 02:21:15;;;;;;;;;;;;;;;;;;2139614;59;1921;-69
2021/08/02 02:23:41;;;;;;;;;;;;;;;;;;2139685;67;1585;-68
2021/08/02 02:26:07;;;;;;;;;;;;;;;;;;2139781;59;1613;-69
2021/08/02 02:28:34;;;;;;;;;;;;;;;;;;2138890;59;2037;-69
2021/08/02 02:31:00;;;;;;;;;;;;;;;;;;2138838;67;1591;-69
2021/08/02 02:33:28;;;;;;;;;;;;;;;;;;2139250;67;1463;-69
2021/08/02 02:35:53;;;;;;;;;;;;;;;;;;2138449;67;1570;-68
2021/08/02 02:38:19;;;;;;;;;;;;;;;;;;2138904;67;1792;-68
2021/08/02 02:40:45;;;;;;;;;;;;;;;;;;2140706;67;1239;-69
2021/08/02 02:43:14;;;;;;;;;;;;;;;;;;2139987;67;1463;-69
2021/08/02 02:45:41;;;;;;;;;;;;;;;;;;2139901;67;1468;-69
2021/08/02 02:48:07;;;;;;;;;;;;;;;;;;2138422;67;1929;-69
2021/08/02 02:50:33;;;;;;;;;;;;;;;;;;2139089;67;1535;-69
2021/08/02 02:53:00;;;;;;;;;;;;;;;;;;2140521;66;1482;-69
2021/08/02 02:55:25;;;;;;;;;;;;;;;;;;2139727;67;1533;-68
2021/08/02 02:57:52;;;;;;;;;;;;;;;;;;2140591;67;1376;-69
2021/08/02 03:00:17;;;;;;;;;;;;;;;;;;2139556;67;1364;-69
2021/08/02 03:02:43;;;;;;;;;;;;;;;;;;2140032;59;1576;-69
2021/08/02 03:05:10;;;;;;;;;;;;;;;;;;2139354;67;1541;-68
2021/08/02 03:07:37;;;;;;;;;;;;;;;;;;2140565;67;1601;-69
2021/08/02 03:10:03;;;;;;;;;;;;;;;;;;2139873;67;1932;-68
2021/08/02 03:12:30;;;;;;;;;;;;;;;;;;2140508;67;1569;-69
2021/08/02 03:14:56;;;;;;;;;;;;;;;;;;2139218;67;1472;-68
2021/08/02 03:17:21;;;;;;;;;;;;;;;;;;2140844;67;1454;-68
2021/08/02 03:19:46;;;;;;;;;;;;;;;;;;2139349;67;1116;-69
2021/08/02 03:22:17;;;;;;;;;;;;;;;;;;2140555;67;1522;-69
2021/08/02 03:24:45;;;;;;;;;;;;;;;;;;2137637;59;1497;-69
2021/08/02 03:27:27;;;;;;;;;;;;;;;;;;2140131;67;1550;-69
2021/08/02 03:29:53;;;;;;;;;;;;;;;;;;2138233;67;1927;-69
2021/08/02 03:32:20;;;;;;;;;;;;;;;;;;2140492;67;1376;-69
2021/08/02 03:34:48;;;;;;;;;;;;;;;;;;2139439;67;1503;-69
2021/08/02 03:37:15;;;;;;;;;;;;;;;;;;2139552;67;1516;-69
2021/08/02 03:39:42;;;;;;;;;;;;;;;;;;2139477;67;1620;-69
2021/08/02 03:42:08;;;;;;;;;;;;;;;;;;2140502;67;1587;-68
2021/08/02 03:44:33;;;;;;;;;;;;;;;;;;2139473;67;1386;-69
2021/08/02 03:46:59;;;;;;;;;;;;;;;;;;2140138;59;1561;-70
2021/08/02 03:49:24;;;;;;;;;;;;;;;;;;2137682;67;1927;-69
2021/08/02 03:51:55;;;;;;;;;;;;;;;;;;2140019;67;1484;-68
2021/08/02 03:54:20;;;;;;;;;;;;;;;;;;2139861;67;1540;-68
2021/08/02 03:56:45;;;;;;;;;;;;;;;;;;2139622;67;1554;-69
2021/08/02 03:59:11;;;;;;;;;;;;;;;;;;2140397;67;1654;-68
2021/08/02 04:01:37;;;;;;;;;;;;;;;;;;2139646;59;1592;-69
2021/08/02 04:04:02;;;;;;;;;;;;;;;;;;2140163;67;1555;-69
2021/08/02 04:06:28;;;;;;;;;;;;;;;;;;2139187;67;1539;-71
2021/08/02 04:08:53;;;;;;;;;;;;;;;;;;2139439;67;1998;-69
2021/08/02 04:11:18;;;;;;;;;;;;;;;;;;2139037;67;1527;-68
2021/08/02 04:13:44;;;;;;;;;;;;;;;;;;2140613;67;1464;-68
2021/08/02 04:16:09;;;;;;;;;;;;;;;;;;2138971;67;1598;-69
2021/08/02 04:18:34;;;;;;;;;;;;;;;;;;2140809;67;1627;-69
2021/08/02 04:20:59;;;;;;;;;;;;;;;;;;2139154;67;1302;-69
2021/08/02 04:23:24;;;;;;;;;;;;;;;;;;2139936;67;1620;-68
2021/08/02 04:25:50;;;;;;;;;;;;;;;;;;2139262;59;1394;-69
2021/08/02 04:28:15;;;;;;;;;;;;;;;;;;2140023;67;1980;-69
2021/08/02 04:30:40;;;;;;;;;;;;;;;;;;2139765;67;1611;-69
2021/08/02 04:33:05;;;;;;;;;;;;;;;;;;2139178;60;1625;-69
2021/08/02 04:35:30;;;;;;;;;;;;;;;;;;2139688;67;1539;-69
2021/08/02 04:37:56;;;;;;;;;;;;;;;;;;2140520;67;1652;-68
2021/08/02 04:40:21;;;;;;;;;;;;;;;;;;2139671;67;1290;-68
2021/08/02 04:42:46;;;;;;;;;;;;;;;;;;2139490;67;1515;-69
2021/08/02 04:45:12;;;;;;;;;;;;;;;;;;2138945;67;1164;-69
2021/08/02 04:47:37;;;;;;;;;;;;;;;;;;2139451;59;1717;-69
2021/08/02 04:50:03;;;;;;;;;;;;;;;;;;2138323;67;2273;-68
2021/08/02 04:52:28;;;;;;;;;;;;;;;;;;2138582;67;1507;-69
2021/08/02 04:54:53;;;;;;;;;;;;;;;;;;2139869;67;1598;-68
2021/08/02 04:57:18;;;;;;;;;;;;;;;;;;2139531;67;1558;-69
2021/08/02 04:59:43;;;;;;;;;;;;;;;;;;2139974;67;1358;-69
2021/08/02 05:02:09;;;;;;;;;;;;;;;;;;2140002;59;1503;-69
2021/08/02 05:04:34;;;;;;;;;;;;;;;;;;2140419;67;1346;-68
2021/08/02 05:06:59;;;;;;;;;;;;;;;;;;2140074;67;1594;-69
2021/08/02 05:09:25;;;;;;;;;;;;;;;;;;2139566;67;1934;-69
2021/08/02 05:11:53;;;;;;;;;;;;;;;;;;2139972;67;1612;-69
2021/08/02 05:14:18;;;;;;;;;;;;;;;;;;2140425;67;1567;-69
2021/08/02 05:16:44;;;;;;;;;;;;;;;;;;2139930;67;1727;-68
2021/08/02 05:19:10;;;;;;;;;;;;;;;;;;2141480;67;1503;-69
2021/08/02 05:21:35;;;;;;;;;;;;;;;;;;2140078;66;1541;-69
2021/08/02 05:24:00;;;;;;;;;;;;;;;;;;2140014;59;1627;-68
2021/08/02 05:26:25;;;;;;;;;;;;;;;;;;2139280;67;1504;-68
2021/08/02 05:28:50;;;;;;;;;;;;;;;;;;2141074;67;1944;-69
2021/08/02 05:31:16;;;;;;;;;;;;;;;;;;2140377;66;1517;-69
2021/08/02 05:33:41;;;;;;;;;;;;;;;;;;2140011;66;1606;-69
2021/08/02 05:36:06;;;;;;;;;;;;;;;;;;2140162;67;1510;-69
2021/08/02 05:38:31;;;;;;;;;;;;;;;;;;2140332;67;1653;-69
2021/08/02 05:40:58;;;;;;;;;;;;;;;;;;2140075;67;1569;-68
2021/08/02 05:43:24;;;;;;;;;;;;;;;;;;2140361;67;1581;-69
2021/08/02 05:45:50;;;;;;;;;;;;;;;;;;2140226;67;1610;-69
2021/08/02 05:48:15;;;;;;;;;;;;;;;;;;2139456;59;1983;-69
2021/08/02 05:50:40;;;;;;;;;;;;;;;;;;2138586;67;1544;-69
2021/08/02 05:53:05;;;;;;;;;;;;;;;;;;2139844;67;1639;-69
2021/08/02 05:55:30;;;;;;;;;;;;;;;;;;2140519;66;1496;-68
2021/08/02 05:57:55;;;;;;;;;;;;;;;;;;2139680;67;1512;-69
2021/08/02 06:00:22;;;;;;;;;;;;;;;;;;2140854;66;1086;-69
2021/08/02 06:02:48;;;;;;;;;;;;;;;;;;2139632;59;1444;-69
2021/08/02 06:05:13;;;;;;;;;;;;;;;;;;2140258;67;1503;-69
2021/08/02 06:07:41;;;;;;;;;;;;;;;;;;2140932;67;1575;-69
2021/08/02 06:10:07;;;;;;;;;;;;;;;;;;2139648;66;1933;-69
2021/08/02 06:12:32;;;;;;;;;;;;;;;;;;2138962;67;1314;-69
2021/08/02 06:14:57;;;;;;;;;;;;;;;;;;2140954;67;1573;-68
2021/08/02 06:17:23;;;;;;;;;;;;;;;;;;2139408;67;1104;-69
2021/08/02 06:19:48;;;;;;;;;;;;;;;;;;2140535;67;1577;-69
2021/08/02 06:22:13;;;;;;;;;;;;;;;;;;2139339;67;1335;-69
2021/08/02 06:24:38;;;;;;;;;;;;;;;;;;2140839;59;1260;-69
2021/08/02 06:27:04;;;;;;;;;;;;;;;;;;2139913;67;1596;-69
2021/08/02 06:29:29;;;;;;;;;;;;;;;;;;2140173;67;1927;-69
2021/08/02 06:31:54;;;;;;;;;;;;;;;;;;2140104;67;1519;-68
2021/08/02 06:34:19;;;;;;;;;;;;;;;;;;2139798;67;1301;-70
2021/08/02 06:36:44;;;;;;;;;;;;;;;;;;2141126;67;1512;-69
2021/08/02 06:39:09;;;;;;;;;;;;;;;;;;2139617;67;1545;-69
2021/08/02 06:41:35;;;;;;;;;;;;;;;;;;2140520;67;1513;-67
2021/08/02 06:44:00;;;;;;;;;;;;;;;;;;2140560;67;1545;-69
2021/08/02 06:46:25;;;;;;;;;;;;;;;;;;2140295;59;1470;-68
2021/08/02 06:48:50;;;;;;;;;;;;;;;;;;2138815;59;2854;-71
2021/08/02 06:51:18;;;;;;;;;;;;;;;;;;2138515;59;1404;-68
2021/08/02 06:53:43;;;;;;;;;;;;;;;;;;2138521;67;1507;-71
2021/08/02 06:56:08;;;;;;;;;;;;;;;;;;2140631;59;1626;-68
2021/08/02 06:58:34;;;;;;;;;;;;;;;;;;2140054;67;1558;-68
2021/08/02 07:00:59;;;;;;;;;;;;;;;;;;2140783;59;1403;-69
2021/08/02 07:03:24;;;;;;;;;;;;;;;;;;2139759;67;1288;-68
2021/08/02 07:05:49;;;;;;;;;;;;;;;;;;2138696;59;1908;-69
2021/08/02 07:08:14;;;;;;;;;;;;;;;;;;2139680;67;1933;-69
2021/08/02 07:10:40;;;;;;;;;;;;;;;;;;2140729;66;1505;-69
2021/08/02 07:13:05;;;;;;;;;;;;;;;;;;2138493;67;2211;-69
2021/08/02 07:15:30;;;;;;;;;;;;;;;;;;2139969;67;1414;-70
2021/08/02 07:17:55;;;;;;;;;;;;;;;;;;2137586;67;2217;-69
2021/08/02 07:20:20;;;;;;;;;;;;;;;;;;2136241;59;2302;-69
2021/08/02 07:22:46;;;;;;;;;;;;;;;;;;2137338;59;1558;-69
2021/08/02 07:25:13;;;;;;;;;;;;;;;;;;2138340;59;1941;-70
2021/08/02 07:27:38;;;;;;;;;;;;;;;;;;2137384;59;1884;-70
2021/08/02 07:30:04;;;;;;;;;;;;;;;;;;2139194;67;1988;-68
2021/08/02 07:32:29;;;;;;;;;;;;;;;;;;2139752;67;1479;-69
2021/08/02 07:34:55;;;;;;;;;;;;;;;;;;2143005;66;2185;-68
2021/08/02 07:37:20;;;;;;;;;;;;;;;;;;2138820;67;1798;-70
2021/08/02 07:39:45;;;;;;;;;;;;;;;;;;2139700;67;1702;-69
2021/08/02 07:42:10;;;;;;;;;;;;;;;;;;2138396;66;2302;-70
2021/08/02 07:44:35;;;;;;;;;;;;;;;;;;2141446;66;1785;-68
2021/08/02 07:47:01;;;;;;;;;;;;;;;;;;2139126;59;1720;-70
2021/08/02 07:49:26;;;;;;;;;;;;;;;;;;2137082;59;2149;-70
2021/08/02 07:51:51;;;;;;;;;;;;;;;;;;2137145;59;1996;-70
2021/08/02 07:54:16;;;;;;;;;;;;;;;;;;2137965;67;1540;-69
2021/08/02 07:56:42;;;;;;;;;;;;;;;;;;2135064;59;2367;-71
2021/08/02 07:59:07;;;;;;;;;;;;;;;;;;2133618;59;1945;-71
2021/08/02 08:01:32;;;;;;;;;;;;;;;;;;2137235;59;1831;-69
2021/08/02 08:03:58;;;;;;;;;;;;;;;;;;2137383;59;2073;-69
2021/08/02 08:06:23;;;;;;;;;;;;;;;;;;2138520;67;2157;-71
2021/08/02 08:08:49;;;;;;;;;;;;;;;;;;2136499;59;2980;-69
2021/08/02 08:11:14;;;;;;;;;;;;;;;;;;2138052;59;1484;-70
2021/08/02 08:13:39;;;;;;;;;;;;;;;;;;2140436;67;1482;-71
2021/08/02 08:16:05;;;;;;;;;;;;;;;;;;2137940;67;1536;-69
2021/08/02 08:18:31;;;;;;;;;;;;;;;;;;2140037;66;2022;-72
2021/08/02 08:20:59;;;;;;;;;;;;;;;;;;2136702;59;2242;-70
2021/08/02 08:23:24;;;;;;;;;;;;;;;;;;2136952;59;2205;-70
2021/08/02 08:25:49;;;;;;;;;;;;;;;;;;2137647;59;1672;-69
2021/08/02 08:28:15;;;;;;;;;;;;;;;;;;2139715;67;1921;-69
2021/08/02 08:30:40;;;;;;;;;;;;;;;;;;2138685;67;1618;-71
2021/08/02 08:33:05;;;;;;;;;;;;;;;;;;2136976;67;1827;-70
2021/08/02 08:35:30;;;;;;;;;;;;;;;;;;2139183;67;1594;-71
2021/08/02 08:37:55;;;;;;;;;;;;;;;;;;2140134;67;1459;-70
2021/08/02 08:40:22;;;;;;;;;;;;;;;;;;2140707;67;1488;-70
2021/08/02 08:42:47;;;;;;;;;;;;;;;;;;2138177;67;2292;-70
2021/08/02 08:45:12;;;;;;;;;;;;;;;;;;2136894;67;2204;-69
2021/08/02 08:47:37;;;;;;;;;;;;;;;;;;2139106;59;1752;-69
2021/08/02 08:50:06;;;;;;;;;;;;;;;;;;2137563;67;2000;-70
2021/08/02 08:52:35;;;;;;;;;;;;;;;;;;2140071;67;2262;-70
2021/08/02 08:55:04;;;;;;;;;;;;;;;;;;2137977;60;1820;-69
2021/08/02 08:57:29;;;;;;;;;;;;;;;;;;2139029;62;1582;-71
2021/08/02 08:59:54;;;;;;;;;;;;;;;;;;2137902;59;1612;-69
2021/08/02 09:02:26;;;;;;;;;;;;;;;;;;2139077;59;1675;-70
2021/08/02 09:04:53;;;;;;;;;;;;;;;;;;2143526;66;1658;-70
2021/08/02 09:07:18;;;;;;;;;;;;;;;;;;2138955;67;1468;-70
2021/08/02 09:09:43;;;;;;;;;;;;;;;;;;2135919;67;3223;-70
2021/08/02 09:12:13;;;;;;;;;;;;;;;;;;2138190;67;2078;-70
2021/08/02 09:14:48;;;;;;;;;;;;;;;;;;2139263;66;1665;-69
2021/08/02 09:17:25;;;;;;;;;;;;;;;;;;2136722;67;1775;-70
2021/08/02 09:19:50;;;;;;;;;;;;;;;;;;2135373;67;1394;-69
2021/08/02 09:22:24;;;;;;;;;;;;;;;;;;2136685;67;2479;-71
2021/08/02 09:24:49;;;;;;;;;;;;;;;;;;2136297;67;1818;-69
2021/08/02 09:27:24;;;;;;;;;;;;;;;;;;2132672;67;2181;-69
2021/08/02 09:29:49;;;;;;;;;;;;;;;;;;2134720;67;1976;-69
2021/08/02 09:32:14;;;;;;;;;;;;;;;;;;2135735;67;2100;-68
2021/08/02 09:34:46;;;;;;;;;;;;;;;;;;2137924;67;1413;-69
2021/08/02 11:04:54;;;;;;;;;;;;;;;;;;2138221;59;1708;-68
2021/08/02 11:07:20;;;;;;;;;;;;;;;;;;2137281;67;1414;-70
2021/08/02 11:09:46;;;;;;;;;;;;;;;;;;2137964;67;3035;-68
2021/08/02 11:12:13;;;;;;;;;;;;;;;;;;2136845;67;3361;-68
2021/08/02 11:14:48;;;;;;;;;;;;;;;;;;2137180;67;1921;-69
2021/08/02 11:17:17;;;;;;;;;;;;;;;;;;2137186;59;2040;-69
2021/08/02 11:19:42;;;;;;;;;;;;;;;;;;2137187;67;2313;-69
2021/08/02 11:22:08;;;;;;;;;;;;;;;;;;2139464;67;1562;-69
2021/08/02 11:24:35;;;;;;;;;;;;;;;;;;2137465;59;1519;-70
2021/08/02 11:27:01;;;;;;;;;;;;;;;;;;2139228;67;1511;-69
2021/08/02 11:29:28;;;;;;;;;;;;;;;;;;2134978;59;2129;-69
2021/08/02 11:32:10;;;;;;;;;;;;;;;;;;2138262;59;1407;-69
2021/08/02 11:34:36;;;;;;;;;;;;;;;;;;2136164;59;2228;-68
2021/08/02 11:37:05;;;;;;;;;;;;;;;;;;2136892;67;1676;-69
2021/08/02 11:39:32;;;;;;;;;;;;;;;;;;2135255;67;2312;-69
2021/08/02 11:42:01;;;;;;;;;;;;;;;;;;2135087;67;2061;-69
2021/08/02 11:44:26;;;;;;;;;;;;;;;;;;2136515;67;1703;-68
2021/08/02 11:46:52;;;;;;;;;;;;;;;;;;2135619;59;2465;-69
2021/08/02 11:49:17;;;;;;;;;;;;;;;;;;2137459;67;1928;-70
2021/08/02 11:51:44;;;;;;;;;;;;;;;;;;2138785;67;1536;-68
2021/08/02 11:54:19;;;;;;;;;;;;;;;;;;2137462;59;1936;-68
2021/08/02 11:56:44;;;;;;;;;;;;;;;;;;2135585;67;1675;-69
2021/08/02 11:59:16;;;;;;;;;;;;;;;;;;2138649;67;1674;-69
2021/08/02 12:01:49;;;;;;;;;;;;;;;;;;2139806;59;1490;-69
2021/08/02 12:04:14;;;;;;;;;;;;;;;;;;2135163;67;2428;-69
2021/08/02 12:06:49;;;;;;;;;;;;;;;;;;2136568;67;1384;-68
2021/08/02 12:09:14;;;;;;;;;;;;;;;;;;2135265;67;1984;-69
2021/08/02 12:11:41;;;;;;;;;;;;;;;;;;2133882;59;2959;-69
2021/08/02 12:14:06;;;;;;;;;;;;;;;;;;2136261;67;3167;-68
2021/08/02 12:16:33;;;;;;;;;;;;;;;;;;2136347;67;2335;-68
2021/08/02 12:19:04;;;;;;;;;;;;;;;;;;2137318;67;1362;-69
2021/08/02 12:21:31;;;;;;;;;;;;;;;;;;2134059;67;2105;-70
2021/08/02 12:24:10;;;;;;;;;;;;;;;;;;2137192;67;1760;-68
2021/08/02 12:26:37;;;;;;;;;;;;;;;;;;2137247;67;1617;-68
2021/08/02 12:29:02;;;;;;;;;;;;;;;;;;2138057;67;1905;-68
2021/08/02 12:31:27;;;;;;;;;;;;;;;;;;2138227;67;1519;-68
2021/08/02 12:33:53;;;;;;;;;;;;;;;;;;2137626;67;1600;-70
2021/08/02 12:36:19;;;;;;;;;;;;;;;;;;2134708;59;2252;-68
2021/08/02 12:38:51;;;;;;;;;;;;;;;;;;2123909;59;2438;-69
2021/08/02 12:41:17;;;;;;;;;;;;;;;;;;2130271;59;2497;-68
2021/08/02 12:43:43;;;;;;;;;;;;;;;;;;2137421;67;1878;-69
2021/08/02 12:46:12;;;;;;;;;;;;;;;;;;2134776;59;1501;-68
2021/08/02 12:48:37;;;;;;;;;;;;;;;;;;2136253;59;2654;-68
2021/08/02 12:51:02;;;;;;;;;;;;;;;;;;2137158;59;1800;-68
2021/08/02 12:53:28;;;;;;;;;;;;;;;;;;2138753;59;1820;-69
2021/08/02 12:55:53;;;;;;;;;;;;;;;;;;2138493;59;1604;-69
2021/08/02 12:58:18;;;;;;;;;;;;;;;;;;2138885;67;1605;-68
2021/08/02 13:00:44;;;;;;;;;;;;;;;;;;2135695;59;1664;-70
2021/08/02 13:03:09;;;;;;;;;;;;;;;;;;2137008;67;1533;-68
2021/08/02 13:05:34;;;;;;;;;;;;;;;;;;2137823;59;1620;-67
2021/08/02 13:07:59;;;;;;;;;;;;;;;;;;2137928;67;1491;-70
2021/08/02 13:10:28;;;;;;;;;;;;;;;;;;2137009;67;1983;-68
2021/08/02 13:12:53;;;;;;;;;;;;;;;;;;2131945;59;3284;-68
2021/08/02 13:15:18;;;;;;;;;;;;;;;;;;2137733;67;2704;-70
2021/08/02 13:17:45;;;;;;;;;;;;;;;;;;2136026;67;2029;-68
2021/08/02 13:20:11;;;;;;;;;;;;;;;;;;2137846;59;2632;-69
2021/08/02 13:22:47;;;;;;;;;;;;;;;;;;2137077;59;2029;-68
2021/08/02 13:27:56;;;;;;;;;;;;;;;;;;2137409;59;1543;-68
2021/08/02 13:30:22;;;;;;;;;;;;;;;;;;2138309;67;1921;-68
2021/08/02 13:32:47;;;;;;;;;;;;;;;;;;2137313;67;1660;-71
2021/08/02 13:35:12;;;;;;;;;;;;;;;;;;2137706;67;2108;-68
2021/08/02 13:37:38;;;;;;;;;;;;;;;;;;2138503;67;1726;-68
2021/08/02 13:40:03;;;;;;;;;;;;;;;;;;2138866;59;2005;-70
2021/08/02 13:42:28;;;;;;;;;;;;;;;;;;2137122;67;1517;-68
2021/08/02 13:44:53;;;;;;;;;;;;;;;;;;2136141;67;1669;-68
2021/08/02 13:47:19;;;;;;;;;;;;;;;;;;2135208;59;2196;-68
2021/08/02 13:49:44;;;;;;;;;;;;;;;;;;2137697;67;1968;-69
2021/08/02 13:52:09;;;;;;;;;;;;;;;;;;2138184;67;2287;-69
2021/08/02 13:54:34;;;;;;;;;;;;;;;;;;2137155;67;2124;-68
2021/08/02 13:56:59;;;;;;;;;;;;;;;;;;2138403;67;1571;-69
2021/08/02 13:59:25;;;;;;;;;;;;;;;;;;2138790;67;1561;-69
2021/08/02 14:01:50;;;;;;;;;;;;;;;;;;2138492;59;1618;-69
2021/08/02 14:04:15;;;;;;;;;;;;;;;;;;2137152;59;1607;-67
2021/08/02 14:06:40;;;;;;;;;;;;;;;;;;2136211;67;1588;-68
2021/08/02 14:09:06;;;;;;;;;;;;;;;;;;2137537;67;1931;-68
2021/08/02 14:11:32;;;;;;;;;;;;;;;;;;2138193;67;1407;-67
2021/08/02 14:13:59;;;;;;;;;;;;;;;;;;2135869;59;3100;-68
2021/08/02 14:16:28;;;;;;;;;;;;;;;;;;2139709;59;3816;-68
2021/08/02 14:19:14;;;;;;;;;;;;;;;;;;2137227;59;1924;-68
2021/08/02 14:21:40;;;;;;;;;;;;;;;;;;2138259;67;2056;-68
2021/08/02 14:24:08;;;;;;;;;;;;;;;;;;2138169;59;1801;-67
2021/08/02 14:26:33;;;;;;;;;;;;;;;;;;2138637;67;1588;-70
2021/08/02 14:28:58;;;;;;;;;;;;;;;;;;2137503;59;1963;-68
2021/08/02 14:31:25;;;;;;;;;;;;;;;;;;2134565;59;2048;-67
2021/08/02 14:33:51;;;;;;;;;;;;;;;;;;2134636;67;1629;-68
2021/08/02 14:36:17;;;;;;;;;;;;;;;;;;2133477;59;2625;-70
2021/08/02 14:38:46;;;;;;;;;;;;;;;;;;2135955;59;1666;-68
2021/08/02 14:41:14;;;;;;;;;;;;;;;;;;2137032;59;1910;-67
2021/08/02 14:43:40;;;;;;;;;;;;;;;;;;2137193;67;1574;-69
2021/08/02 14:46:07;;;;;;;;;;;;;;;;;;2137953;59;1470;-68
2021/08/02 14:48:34;;;;;;;;;;;;;;;;;;2135040;67;1990;-69
2021/08/02 14:51:01;;;;;;;;;;;;;;;;;;2135382;67;2104;-69
2021/08/02 14:53:27;;;;;;;;;;;;;;;;;;2135516;67;1423;-68
2021/08/02 14:55:56;;;;;;;;;;;;;;;;;;2134662;67;1426;-68
2021/08/02 14:58:22;;;;;;;;;;;;;;;;;;2135689;59;1637;-69
2021/08/02 15:00:48;;;;;;;;;;;;;;;;;;2135744;59;2136;-68
2021/08/02 15:03:14;;;;;;;;;;;;;;;;;;2135440;67;2161;-69
2021/08/02 15:05:43;;;;;;;;;;;;;;;;;;2137001;67;1589;-69
2021/08/02 15:08:09;;;;;;;;;;;;;;;;;;2136368;67;1388;-68
2021/08/02 15:10:37;;;;;;;;;;;;;;;;;;2135087;59;1936;-69
2021/08/02 15:13:04;;;;;;;;;;;;;;;;;;2136631;66;1615;-69
2021/08/02 15:15:29;;;;;;;;;;;;;;;;;;2133963;59;3332;-68
2021/08/02 15:17:54;;;;;;;;;;;;;;;;;;2136099;59;2065;-69
2021/08/02 15:20:22;;;;;;;;;;;;;;;;;;2131663;67;1598;-69
2021/08/02 15:22:55;;;;;;;;;;;;;;;;;;2132730;59;13791;-70
2021/08/02 15:25:20;;;;;;;;;;;;;;;;;;2119035;67;17599;-71
2021/08/02 15:27:48;;;;;;;;;;;;;;;;;;2127172;59;2242;-69
2021/08/02 15:30:13;;;;;;;;;;;;;;;;;;2126773;59;1933;-71
2021/08/02 15:32:40;;;;;;;;;;;;;;;;;;2127686;59;1485;-70
2021/08/02 15:35:06;;;;;;;;;;;;;;;;;;2128964;67;1566;-70
2021/08/02 15:37:35;;;;;;;;;;;;;;;;;;2128833;59;1663;-70
2021/08/02 15:40:01;;;;;;;;;;;;;;;;;;2130190;59;1737;-70
2021/08/02 15:42:27;;;;;;;;;;;;;;;;;;2130560;67;1969;-70
2021/08/02 15:45:03;;;;;;;;;;;;;;;;;;2125494;59;2455;-71
2021/08/02 15:47:29;;;;;;;;;;;;;;;;;;2132123;59;1748;-69
2021/08/02 15:49:57;;;;;;;;;;;;;;;;;;2128420;59;2512;-69
2021/08/02 15:52:26;;;;;;;;;;;;;;;;;;2130465;59;1624;-68
2021/08/02 15:58:22;;;;;;;;;;;;;;;;;;2144493;59;1302;-89
2021/08/02 16:00:53;;;;;;;;;;;;;;;;;;2140051;67;1429;-91
2021/08/02 16:03:43;;;;;;;;;;;;;;;;;;2145018;59;1005;-89
2021/08/02 16:06:10;;;;;;;;;;;;;;;;;;2150137;59;1321;-91
2021/08/02 16:09:01;;;;;;;;;;;;;;;;;;2148975;59;2044;-89
2021/08/02 16:11:32;;;;;;;;;;;;;;;;;;2144772;59;1049;-89
2021/08/02 16:13:59;;;;;;;;;;;;;;;;;;2141737;67;1374;-90
2021/08/02 16:16:25;;;;;;;;;;;;;;;;;;2144535;59;1214;-89
2021/08/02 16:18:50;;;;;;;;;;;;;;;;;;2141266;59;1317;-90
2021/08/02 16:21:17;;;;;;;;;;;;;;;;;;2143041;59;1303;-90
2021/08/02 16:23:42;;;;;;;;;;;;;;;;;;2148230;59;1348;-91
2021/08/02 16:26:07;;;;;;;;;;;;;;;;;;2150445;67;1383;-90
2021/08/02 16:28:33;;;;;;;;;;;;;;;;;;2144942;59;1348;-91
2021/08/02 16:30:58;;;;;;;;;;;;;;;;;;2144543;59;1976;-90
2021/08/02 16:33:23;;;;;;;;;;;;;;;;;;2143556;67;1412;-90
2021/08/02 16:35:49;;;;;;;;;;;;;;;;;;2148529;67;1202;-91
2021/08/02 16:38:14;;;;;;;;;;;;;;;;;;2147718;67;1575;-90
2021/08/02 16:40:39;;;;;;;;;;;;;;;;;;2147821;67;1402;-90
2021/08/02 16:43:04;;;;;;;;;;;;;;;;;;2147674;67;1062;-90
2021/08/02 16:45:30;;;;;;;;;;;;;;;;;;2145622;67;1360;-89
2021/08/02 16:47:55;;;;;;;;;;;;;;;;;;2146500;67;1360;-91
2021/08/02 16:50:20;;;;;;;;;;;;;;;;;;2149405;59;1912;-91
2021/08/02 16:52:45;;;;;;;;;;;;;;;;;;2148509;59;832;-92
2021/08/02 16:55:11;;;;;;;;;;;;;;;;;;2147860;67;1374;-90
2021/08/02 16:57:36;;;;;;;;;;;;;;;;;;2152131;59;1059;-92
2021/08/02 17:00:02;;;;;;;;;;;;;;;;;;2149728;59;1300;-92
2021/08/02 17:02:46;;;;;;;;;;;;;;;;;;2149976;59;1194;-89
2021/08/02 17:05:11;;;;;;;;;;;;;;;;;;2145298;59;1409;-91
2021/08/02 17:07:37;;;;;;;;;;;;;;;;;;2146196;67;746;-88
2021/08/02 17:10:02;;;;;;;;;;;;;;;;;;2142246;59;1979;-90
2021/08/02 17:12:27;;;;;;;;;;;;;;;;;;2145929;67;998;-90
2021/08/02 17:14:59;;;;;;;;;;;;;;;;;;2145760;59;1311;-91
2021/08/02 17:17:24;;;;;;;;;;;;;;;;;;2142298;59;1342;-90
2021/08/02 17:19:55;;;;;;;;;;;;;;;;;;2145557;67;1294;-90
2021/08/02 17:22:20;;;;;;;;;;;;;;;;;;2150576;67;1083;-90
2021/08/02 17:24:46;;;;;;;;;;;;;;;;;;2148248;59;1330;-91
2021/08/02 17:27:11;;;;;;;;;;;;;;;;;;2147265;59;839;-89
2021/08/02 17:29:36;;;;;;;;;;;;;;;;;;2143580;60;2006;-90
2021/08/02 17:32:02;;;;;;;;;;;;;;;;;;2148078;59;1153;-90
2021/08/02 17:34:27;;;;;;;;;;;;;;;;;;2148189;67;1487;-89
2021/08/02 17:36:53;;;;;;;;;;;;;;;;;;2147257;67;1454;-90
2021/08/02 17:39:29;;;;;;;;;;;;;;;;;;2147601;59;1462;-89
2021/08/02 17:42:02;;;;;;;;;;;;;;;;;;2144505;59;1330;-90
2021/08/02 17:44:27;;;;;;;;;;;;;;;;;;2150440;59;1332;-90
2021/08/02 17:46:52;;;;;;;;;;;;;;;;;;2151332;59;1026;-90
2021/08/02 17:49:17;;;;;;;;;;;;;;;;;;2149112;59;1972;-90
2021/08/02 17:51:43;;;;;;;;;;;;;;;;;;2151789;67;1069;-90
2021/08/02 17:54:09;;;;;;;;;;;;;;;;;;2149540;67;1078;-90
2021/08/02 17:56:34;;;;;;;;;;;;;;;;;;2147361;60;1359;-90
2021/08/02 17:58:59;;;;;;;;;;;;;;;;;;2147896;67;1149;-90
2021/08/02 18:01:31;;;;;;;;;;;;;;;;;;2148881;67;847;-90
2021/08/02 18:04:07;;;;;;;;;;;;;;;;;;2144033;67;1339;-89
2021/08/02 18:06:38;;;;;;;;;;;;;;;;;;2144683;67;1374;-91
2021/08/02 18:09:08;;;;;;;;;;;;;;;;;;2148091;67;1926;-91
2021/08/02 18:11:42;;;;;;;;;;;;;;;;;;2147345;59;1332;-90
2021/08/02 18:14:16;;;;;;;;;;;;;;;;;;2140804;59;1339;-90
2021/08/02 18:16:50;;;;;;;;;;;;;;;;;;2144282;67;1391;-91
2021/08/02 18:19:18;;;;;;;;;;;;;;;;;;2141412;67;1309;-90
2021/08/02 18:22:03;;;;;;;;;;;;;;;;;;2144129;59;1304;-91
2021/08/02 18:24:29;;;;;;;;;;;;;;;;;;2141135;59;1333;-90
2021/08/02 18:27:00;;;;;;;;;;;;;;;;;;2145138;67;1150;-91
2021/08/02 18:29:26;;;;;;;;;;;;;;;;;;2144736;67;1939;-91
2021/08/02 18:31:51;;;;;;;;;;;;;;;;;;2144754;67;1425;-91
2021/08/02 18:34:17;;;;;;;;;;;;;;;;;;2144888;67;1350;-90